Terminal Aerodrome Forecast
Issued by NWS Duluth, MN

Home | Current Version | Previous Version | Text Only | Print | Product List | Glossary On
Versions: 1 2 3 4 5 6 7 8 9 10 11 12 13 14 15 16 17 18
000
FTUS43 KDLH 292000 AAB
TAFINL
TAF AMD
KINL 292054Z 2921/3018 32010KT P6SM VCSH SCT050 BKN100
      TEMPO 2921/2922 VRB15G25KT 6SM TSRA BKN050CB
     FM300000 33005KT P6SM SCT060
     FM301500 33010KT P6SM SCT060=

USA.gov is the U.S. government's official web portal to all federal, state and local government web resources and services.